Time;durP1;ratioP1;P1;durP2;ratioP2;P2;SDS_P1;SDS_P2;PMS_P1;PMS_P2;Temp;Humidity;BMP_temperature;BMP_pressure;BME280_temperature;BME280_humidity;BME280_pressure;Samples;Min_cycle;Max_cycle;Signal;HPM_P1;HPM_P2
2023/06/11 00:01:08;;;;;;;;;17.00;16.40;;;;;20.65;90.01;98832.00;7698704;22;96235;-62
2023/06/11 00:04:13;;;;;;;;;17.20;16.20;;;;;20.67;89.52;98826.22;7699029;22;98051;-62
2023/06/11 00:07:17;;;;;;;;;17.25;16.25;;;;;20.66;90.08;98833.63;7699608;22;96347;-62
2023/06/11 00:10:20;;;;;;;;;16.00;14.20;;;;;20.71;89.91;98828.09;7698767;22;96297;-62
2023/06/11 00:13:25;;;;;;;;;18.00;16.40;;;;;20.71;89.47;98833.59;7698454;22;96372;-61
2023/06/11 00:16:32;;;;;;;;;17.25;15.75;;;;;20.69;89.55;98827.56;7699164;22;96770;-62
2023/06/11 00:19:36;;;;;;;;;14.00;13.75;;;;;20.60;90.51;98832.03;7697605;22;96324;-62
2023/06/11 00:22:40;;;;;;;;;17.00;16.25;;;;;20.63;90.70;98836.09;7698999;22;96151;-62
2023/06/11 00:25:44;;;;;;;;;17.00;17.00;;;;;20.65;90.78;98831.16;7700289;22;96117;-62
2023/06/11 00:28:48;;;;;;;;;14.75;14.00;;;;;20.65;91.29;98826.50;7700486;22;96150;-61
2023/06/11 00:31:52;;;;;;;;;17.00;16.00;;;;;20.64;91.18;98830.34;7700261;22;96239;-62
2023/06/11 00:34:56;;;;;;;;;14.20;14.00;;;;;20.69;90.86;98833.03;7673630;22;96340;-62
2023/06/11 00:38:00;;;;;;;;;16.00;16.00;;;;;20.59;91.70;98826.84;7673212;22;96279;-62
2023/06/11 00:41:04;;;;;;;;;16.00;15.40;;;;;20.52;92.12;98818.16;7673666;22;96192;-62
2023/06/11 00:44:09;;;;;;;;;17.00;16.80;;;;;20.56;92.04;98824.69;7700278;22;96231;-62
2023/06/11 00:47:12;;;;;;;;;19.00;16.00;;;;;20.54;92.23;98824.16;7700752;22;96377;-61
2023/06/11 00:50:16;;;;;;;;;16.00;15.20;;;;;20.61;91.58;98830.13;7698675;22;96466;-62
2023/06/11 00:53:21;;;;;;;;;17.00;16.60;;;;;20.54;92.55;98829.63;7700212;22;96434;-62
2023/06/11 00:56:26;;;;;;;;;17.00;16.00;;;;;20.58;92.30;98825.19;7647552;22;96833;-62
2023/06/11 00:59:33;;;;;;;;;14.60;13.60;;;;;20.60;92.38;98837.50;7673446;22;96888;-62
2023/06/11 01:02:43;;;;;;;;;18.00;16.00;;;;;20.56;92.97;98830.16;7705327;22;97456;-62
2023/06/11 01:05:50;;;;;;;;;18.00;15.80;;;;;20.47;92.83;98831.91;7700124;22;96767;-62
2023/06/11 01:08:57;;;;;;;;;19.00;18.00;;;;;20.52;93.09;98840.06;7699096;22;96403;-62
2023/06/11 01:12:08;;;;;;;;;18.00;15.60;;;;;20.57;93.13;98838.09;7698930;22;96463;-62
2023/06/11 01:15:14;;;;;;;;;18.00;17.00;;;;;20.62;93.14;98837.22;7723238;22;96917;-61
2023/06/11 01:18:23;;;;;;;;;16.50;16.00;;;;;20.59;93.39;98841.34;7698828;22;96445;-61
2023/06/11 01:21:33;;;;;;;;;15.00;15.00;;;;;20.58;93.55;98833.41;7698560;22;97232;-62
2023/06/11 01:24:53;;;;;;;;;16.60;16.00;;;;;20.62;93.55;98846.25;7699914;22;96311;-62
2023/06/11 01:28:05;;;;;;;;;18.00;16.60;;;;;20.64;93.48;98837.75;7698555;22;96379;-62
2023/06/11 01:31:14;;;;;;;;;17.60;15.40;;;;;20.56;94.30;98841.94;7696456;22;96260;-62
2023/06/11 01:34:18;;;;;;;;;17.00;15.60;;;;;20.53;94.67;98839.75;7695281;22;96854;-62
2023/06/11 01:37:21;;;;;;;;;20.20;18.20;;;;;20.41;95.96;98838.50;7696098;22;97132;-62
2023/06/11 01:40:27;;;;;;;;;16.80;16.00;;;;;20.19;96.73;98828.78;7695615;22;96400;-61
2023/06/11 01:43:35;;;;;;;;;19.00;18.60;;;;;20.25;97.19;98833.13;7695967;22;96264;-62
2023/06/11 01:46:39;;;;;;;;;21.00;20.60;;;;;20.22;98.57;98828.22;7698817;22;96426;-62
2023/06/11 01:49:43;;;;;;;;;19.60;19.20;;;;;20.17;98.78;98838.41;7698321;22;96217;-62
2023/06/11 01:52:48;;;;;;;;;19.00;18.00;;;;;20.12;99.40;98843.91;7698577;22;96215;-62
2023/06/11 01:55:52;;;;;;;;;19.20;19.00;;;;;20.04;99.76;98828.06;7698356;22;96361;-62
2023/06/11 01:58:57;;;;;;;;;18.60;18.60;;;;;20.14;100.00;98836.22;7698106;22;97013;-62
2023/06/11 02:02:01;;;;;;;;;23.00;21.00;;;;;20.20;100.00;98844.13;7696340;22;96371;-61
2023/06/11 02:05:05;;;;;;;;;21.00;20.00;;;;;20.25;99.79;98846.00;7672443;22;96972;-62
2023/06/11 02:08:09;;;;;;;;;17.00;16.40;;;;;20.28;100.00;98831.75;7673400;22;97046;-62
2023/06/11 02:11:12;;;;;;;;;21.20;20.00;;;;;20.37;99.55;98840.19;7699623;22;96372;-62
2023/06/11 02:14:17;;;;;;;;;21.00;20.00;;;;;20.40;99.37;98834.13;7698993;22;96216;-61
2023/06/11 02:17:20;;;;;;;;;21.50;20.25;;;;;20.45;98.79;98839.56;7699414;22;96242;-62
2023/06/11 02:20:24;;;;;;;;;18.00;17.00;;;;;20.47;98.25;98849.16;7672389;22;96850;-61
2023/06/11 02:23:28;;;;;;;;;18.25;17.25;;;;;20.46;98.17;98850.25;7699148;22;97630;-62
2023/06/11 02:26:31;;;;;;;;;20.00;19.00;;;;;20.46;98.10;98839.28;7672463;22;96316;-61
2023/06/11 02:29:36;;;;;;;;;22.00;19.60;;;;;20.57;97.54;98849.06;7672475;22;96271;-62
2023/06/11 02:32:40;;;;;;;;;21.40;20.40;;;;;20.63;97.01;98847.06;7671105;22;96424;-62
2023/06/11 02:35:44;;;;;;;;;22.40;19.40;;;;;20.59;97.59;98849.56;7698884;22;96196;-62
2023/06/11 02:38:47;;;;;;;;;17.00;15.80;;;;;20.66;97.12;98852.81;7671639;22;96581;-62
2023/06/11 02:41:51;;;;;;;;;19.50;18.00;;;;;20.73;96.57;98856.00;7672393;22;96356;-62
2023/06/11 02:44:56;;;;;;;;;16.00;16.00;;;;;20.68;95.97;98855.25;7697915;22;96230;-62
2023/06/11 02:47:59;;;;;;;;;18.00;17.00;;;;;20.78;95.73;98855.16;7699223;22;96172;-61
2023/06/11 02:51:02;;;;;;;;;22.60;20.00;;;;;20.77;94.81;98858.97;7699280;22;96190;-62
2023/06/11 02:54:06;;;;;;;;;17.00;17.00;;;;;20.78;93.83;98852.41;7699185;22;96409;-62
2023/06/11 02:57:10;;;;;;;;;19.20;18.20;;;;;20.69;93.93;98854.13;7672293;22;96231;-61
2023/06/11 03:00:15;;;;;;;;;20.40;18.40;;;;;20.79;93.26;98861.44;7699400;22;96615;-61
2023/06/11 03:03:18;;;;;;;;;19.00;18.00;;;;;20.77;93.24;98863.69;7713147;22;96184;-61
2023/06/11 03:06:24;;;;;;;;;19.40;18.40;;;;;20.74;93.35;98863.13;7697610;22;96271;-61
2023/06/11 03:09:28;;;;;;;;;19.00;18.60;;;;;20.71;93.55;98865.63;7696800;22;96435;-62
2023/06/11 03:12:31;;;;;;;;;18.50;17.00;;;;;20.48;94.38;98863.63;7697028;22;96215;-62
2023/06/11 03:15:36;;;;;;;;;16.20;15.00;;;;;20.36;95.51;98872.22;7696731;22;96383;-62
2023/06/11 03:18:40;;;;;;;;;19.00;17.00;;;;;20.34;96.30;98868.94;7699461;22;96267;-62
2023/06/11 03:21:43;;;;;;;;;18.80;16.80;;;;;20.47;95.73;98864.75;7698129;22;96262;-62
2023/06/11 03:24:48;;;;;;;;;20.40;18.40;;;;;20.51;94.84;98868.56;7695154;22;96612;-61
2023/06/11 03:28:06;;;;;;;;;16.40;15.40;;;;;20.53;94.32;98872.63;7695665;22;96245;-61
2023/06/11 03:31:11;;;;;;;;;17.00;17.00;;;;;20.52;94.80;98868.28;7694165;22;96344;-62
2023/06/11 03:34:16;;;;;;;;;18.00;17.00;;;;;20.61;94.36;98872.03;7695322;22;96639;-61
2023/06/11 03:37:20;;;;;;;;;15.00;15.00;;;;;20.70;93.79;98869.47;7695827;22;97033;-62
2023/06/11 03:40:27;;;;;;;;;17.00;15.50;;;;;20.77;93.60;98862.53;7695505;22;96307;-62
2023/06/11 03:43:32;;;;;;;;;15.25;15.00;;;;;20.85;92.87;98872.06;7695954;22;96406;-62
2023/06/11 03:46:37;;;;;;;;;17.60;17.60;;;;;20.90;92.23;98873.94;7696809;22;96193;-62
2023/06/11 03:49:40;;;;;;;;;19.60;18.00;;;;;20.91;91.70;98872.84;7698429;22;96229;-62
2023/06/11 03:52:44;;;;;;;;;16.00;16.00;;;;;20.87;91.39;98872.59;7697313;22;96732;-62
2023/06/11 03:55:47;;;;;;;;;15.40;15.00;;;;;20.90;91.95;98879.44;7696177;22;96358;-62
2023/06/11 03:58:50;;;;;;;;;16.60;16.60;;;;;20.88;91.54;98876.16;7700512;22;96196;-62
2023/06/11 04:01:55;;;;;;;;;18.00;17.00;;;;;20.88;91.70;98885.19;7673927;22;98911;-61
2023/06/11 04:04:59;;;;;;;;;19.80;18.40;;;;;20.93;91.63;98882.41;7648902;22;98770;-61
2023/06/11 04:08:03;;;;;;;;;19.60;17.60;;;;;20.86;90.87;98883.84;7702657;22;96455;-61
2023/06/11 04:11:07;;;;;;;;;16.25;15.25;;;;;20.94;90.45;98880.47;7676080;22;96135;-62
2023/06/11 04:14:10;;;;;;;;;18.60;16.00;;;;;20.92;90.29;98888.97;7703004;22;96226;-61
2023/06/11 04:17:15;;;;;;;;;14.20;14.20;;;;;20.81;91.42;98892.13;7676206;22;96902;-61
2023/06/11 04:20:19;;;;;;;;;17.80;16.20;;;;;20.91;91.71;98894.78;7675445;22;96457;-61
2023/06/11 04:23:23;;;;;;;;;17.20;16.60;;;;;20.84;90.98;98894.28;7673028;22;96844;-61
2023/06/11 04:26:26;;;;;;;;;14.50;13.50;;;;;20.97;90.25;98901.81;7702778;22;96200;-62
2023/06/11 04:29:29;;;;;;;;;16.00;15.00;;;;;20.92;90.81;98891.72;7675694;22;96325;-62
2023/06/11 04:32:40;;;;;;;;;15.00;13.25;;;;;20.93;90.03;98898.03;7675068;22;96235;-62
2023/06/11 04:35:47;;;;;;;;;16.00;14.33;;;;;20.97;90.29;98899.91;7675579;22;96278;-62
2023/06/11 04:38:51;;;;;;;;;17.50;16.50;;;;;20.97;90.55;98904.56;7674652;22;96458;-62
2023/06/11 04:41:55;;;;;;;;;15.60;14.60;;;;;20.99;90.47;98894.94;7675322;22;96247;-61
2023/06/11 04:45:01;;;;;;;;;20.40;17.60;;;;;21.05;89.70;98906.69;7673448;22;96739;-62
2023/06/11 04:48:08;;;;;;;;;17.25;15.25;;;;;21.08;89.59;98908.84;7648780;22;97382;-62
2023/06/11 04:51:16;;;;;;;;;17.33;15.33;;;;;21.12;89.86;98918.13;7699376;22;96349;-62
2023/06/11 04:54:23;;;;;;;;;18.00;17.00;;;;;20.95;89.07;98915.81;7674161;22;96229;-62
2023/06/11 04:57:27;;;;;;;;;17.00;17.00;;;;;21.07;88.75;98923.66;7673534;22;98325;-62
2023/06/11 05:00:30;;;;;;;;;18.40;16.40;;;;;21.10;88.02;98921.16;7701697;22;96459;-62
2023/06/11 05:03:38;;;;;;;;;17.40;16.40;;;;;21.14;88.27;98913.19;7693504;22;96223;-62
2023/06/11 05:06:45;;;;;;;;;18.60;17.40;;;;;21.27;87.18;98918.00;7700441;22;96979;-62
2023/06/11 05:21:09;;;;;;;;;17.50;16.50;;;;;21.27;87.38;98928.13;6287868;27;96336;-64
2023/06/11 05:24:19;;;;;;;;;16.00;15.00;;;;;21.32;86.64;98920.69;6263641;27;96748;-64
2023/06/11 05:27:29;;;;;;;;;16.50;14.50;;;;;21.20;86.12;98916.72;6275297;27;96288;-62
2023/06/11 05:30:37;;;;;;;;;17.50;17.00;;;;;21.31;86.12;98918.22;6233161;27;99155;-63
2023/06/11 05:33:42;;;;;;;;;16.00;15.00;;;;;21.24;87.18;98918.59;6251069;27;96267;-63
2023/06/11 05:36:48;;;;;;;;;16.00;16.00;;;;;21.17;86.57;98910.69;6255805;27;96426;-63
2023/06/11 05:39:52;;;;;;;;;17.00;16.00;;;;;21.35;86.02;98922.03;6277282;27;96321;-63
2023/06/11 05:42:57;;;;;;;;;17.60;15.60;;;;;21.38;86.23;98925.00;6266214;27;96430;-63
2023/06/11 05:46:01;;;;;;;;;15.00;14.00;;;;;21.44;85.11;98929.34;6253166;27;96390;-62
2023/06/11 05:49:06;;;;;;;;;14.00;12.60;;;;;21.45;84.27;98933.69;6232282;27;96726;-62
2023/06/11 05:52:12;;;;;;;;;14.20;12.60;;;;;21.39;82.75;98932.13;6261752;27;96457;-62
2023/06/11 05:55:16;;;;;;;;;16.00;15.20;;;;;21.38;83.63;98941.47;6259373;27;96627;-62
2023/06/11 05:58:20;;;;;;;;;15.00;14.00;;;;;21.31;82.68;98945.63;6257366;27;96887;-62
2023/06/11 06:01:24;;;;;;;;;12.80;12.80;;;;;21.20;83.03;98950.44;6242572;27;98440;-63
2023/06/11 06:04:28;;;;;;;;;16.40;14.40;;;;;21.21;81.15;98949.31;6254494;27;96643;-63
2023/06/11 06:07:32;;;;;;;;;15.00;14.00;;;;;21.11;82.98;98957.63;6261044;27;96615;-63
2023/06/11 06:10:36;;;;;;;;;16.00;14.00;;;;;21.10;82.56;98959.53;6266170;27;98245;-64
2023/06/11 06:13:40;;;;;;;;;14.00;13.00;;;;;20.83;80.65;98912.63;6261154;27;96793;-63
2023/06/11 06:16:43;;;;;;;;;15.80;15.00;;;;;21.21;80.51;98957.53;6272844;27;96784;-64
2023/06/11 06:19:51;;;;;;;;;15.25;14.00;;;;;21.18;79.45;98947.97;6237607;27;98390;-62
2023/06/11 06:22:55;;;;;;;;;14.80;13.80;;;;;21.26;80.62;98964.91;6239950;27;96860;-62
2023/06/11 06:26:00;;;;;;;;;14.80;14.80;;;;;21.20;81.20;98972.38;6229581;27;96645;-62
2023/06/11 06:29:04;;;;;;;;;13.00;13.00;;;;;21.27;81.09;98975.56;6251306;27;97166;-62
2023/06/11 06:32:08;;;;;;;;;13.25;13.25;;;;;21.32;81.81;98974.72;6246191;27;97219;-62
2023/06/11 06:35:12;;;;;;;;;15.40;14.00;;;;;21.31;81.42;98976.63;6251957;27;97125;-62
2023/06/11 06:38:17;;;;;;;;;16.00;15.00;;;;;21.36;79.71;98983.97;6245398;27;96824;-62
2023/06/11 06:41:23;;;;;;;;;17.00;16.00;;;;;21.51;78.52;98986.56;6255020;27;96237;-70
2023/06/11 06:44:26;;;;;;;;;14.00;14.00;;;;;21.52;77.17;98975.31;6246327;27;96552;-69
2023/06/11 06:47:31;;;;;;;;;19.00;17.00;;;;;21.53;75.67;98990.69;6251212;27;96481;-70
2023/06/11 06:50:35;;;;;;;;;15.00;14.00;;;;;21.58;75.13;98982.41;6240793;27;96616;-68
2023/06/11 06:53:40;;;;;;;;;16.80;15.00;;;;;21.45;73.55;98985.00;6225931;27;96637;-71
2023/06/11 06:56:44;;;;;;;;;14.60;14.60;;;;;21.54;73.73;98986.00;6227432;27;96835;-69
2023/06/11 06:59:48;;;;;;;;;14.00;14.00;;;;;21.52;74.39;98982.72;6232947;27;96962;-68
2023/06/11 07:02:51;;;;;;;;;14.50;13.00;;;;;21.63;74.98;98986.19;6247190;27;96816;-69
2023/06/11 07:05:55;;;;;;;;;12.80;12.20;;;;;21.57;75.04;98986.25;6221643;28;96633;-69
2023/06/11 07:09:03;;;;;;;;;14.00;14.00;;;;;21.63;75.22;98991.66;6238839;27;96611;-69
2023/06/11 07:12:07;;;;;;;;;13.50;12.50;;;;;21.76;76.13;98990.97;6253630;27;96782;-69
2023/06/11 07:15:11;;;;;;;;;15.00;13.00;;;;;21.86;75.17;98993.59;6226674;27;98533;-69
2023/06/11 07:18:15;;;;;;;;;15.20;13.00;;;;;21.90;73.72;98989.97;6242642;27;96586;-68
2023/06/11 07:21:18;;;;;;;;;17.60;16.00;;;;;21.99;72.95;98998.44;6235480;27;96781;-69
2023/06/11 07:24:24;;;;;;;;;17.00;15.60;;;;;22.01;72.93;98999.75;6224259;27;96981;-68
2023/06/11 07:27:29;;;;;;;;;15.60;14.60;;;;;22.06;72.28;98995.31;6240761;27;98200;-68
2023/06/11 07:30:34;;;;;;;;;13.25;13.00;;;;;22.11;71.24;99007.03;6245154;27;96624;-67
2023/06/11 07:33:38;;;;;;;;;16.00;14.40;;;;;22.14;70.23;99000.16;6245587;27;96562;-70
2023/06/11 07:36:42;;;;;;;;;14.20;13.80;;;;;22.18;70.14;99002.03;6232146;28;96373;-69
2023/06/11 07:39:47;;;;;;;;;14.60;13.60;;;;;22.34;68.90;99005.34;6234102;28;96295;-71
2023/06/11 07:42:51;;;;;;;;;13.00;13.00;;;;;22.42;69.19;99002.78;6234409;28;97067;-69
2023/06/11 07:45:55;;;;;;;;;12.60;10.60;;;;;22.46;68.55;99000.25;6236091;28;96438;-69
2023/06/11 07:48:58;;;;;;;;;14.00;12.00;;;;;22.31;67.25;99004.03;6220462;28;97873;-69
2023/06/11 07:52:02;;;;;;;;;13.00;13.00;;;;;22.28;68.93;99004.63;6220212;28;97092;-70
2023/06/11 07:55:07;;;;;;;;;15.00;15.00;;;;;22.52;68.11;99007.31;6220354;28;98591;-68
2023/06/11 07:58:11;;;;;;;;;11.00;11.00;;;;;22.70;66.05;99008.44;6237359;28;96486;-69
2023/06/11 08:01:14;;;;;;;;;15.00;14.00;;;;;22.80;65.48;99003.63;6238200;27;96606;-69
2023/06/11 08:04:17;;;;;;;;;14.50;13.00;;;;;22.96;65.08;98997.88;6238280;27;96991;-70
2023/06/11 08:07:20;;;;;;;;;15.00;14.00;;;;;23.21;63.84;99009.25;6220007;28;96728;-70
2023/06/11 08:10:25;;;;;;;;;14.00;14.00;;;;;23.40;62.62;99014.72;6236683;28;96628;-69
2023/06/11 08:13:28;;;;;;;;;16.00;15.00;;;;;23.18;62.27;99011.81;6238101;27;96354;-70
2023/06/11 08:16:31;;;;;;;;;14.40;13.40;;;;;23.25;62.99;99018.56;6237708;27;97210;-70
2023/06/11 08:19:35;;;;;;;;;15.75;14.50;;;;;23.44;63.04;99015.75;6236653;28;96942;-70
2023/06/11 08:22:39;;;;;;;;;14.00;14.00;;;;;23.84;62.93;99007.88;6236759;28;96733;-69
2023/06/11 08:25:44;;;;;;;;;13.40;13.40;;;;;24.13;60.01;99016.66;6238287;28;96671;-69
2023/06/11 08:28:47;;;;;;;;;11.00;10.20;;;;;24.13;58.10;99011.13;6237713;28;96361;-71
2023/06/11 08:31:50;;;;;;;;;10.20;10.00;;;;;24.34;58.61;99006.03;6236479;28;96840;-71
2023/06/11 08:34:53;;;;;;;;;11.00;10.00;;;;;24.34;57.66;99011.53;6237770;28;96466;-71
2023/06/11 08:37:56;;;;;;;;;10.00;9.00;;;;;24.06;57.58;99011.53;6235868;28;96727;-71
2023/06/11 08:41:01;;;;;;;;;11.75;11.75;;;;;23.98;58.29;99014.19;6219148;28;96837;-70
2023/06/11 08:44:04;;;;;;;;;11.00;10.67;;;;;24.19;57.20;99009.91;6235369;27;96815;-70
2023/06/11 08:47:09;;;;;;;;;11.60;10.60;;;;;24.22;56.97;99014.00;6236256;28;96423;-71
2023/06/11 08:50:12;;;;;;;;;11.00;11.00;;;;;24.36;56.21;99020.31;6237361;27;96547;-69
2023/06/11 08:53:16;;;;;;;;;11.20;10.80;;;;;24.70;55.15;99012.38;6235674;27;96397;-70
2023/06/11 08:56:21;;;;;;;;;11.00;11.00;;;;;25.23;54.40;99009.72;6235921;28;96777;-69
2023/06/11 08:59:24;;;;;;;;;11.20;10.80;;;;;25.82;53.61;98999.34;6236920;28;96369;-69
2023/06/11 09:02:27;;;;;;;;;14.20;14.20;;;;;25.95;51.55;98998.41;6237258;27;97101;-69
2023/06/11 09:05:31;;;;;;;;;12.00;11.00;;;;;26.00;50.98;99008.53;6236835;27;96397;-69
2023/06/11 09:08:34;;;;;;;;;11.00;10.00;;;;;26.22;50.83;99006.50;6235251;28;96201;-69
2023/06/11 09:11:39;;;;;;;;;11.40;11.40;;;;;26.34;49.84;98999.53;6218409;28;97253;-69
2023/06/11 09:14:52;;;;;;;;;13.00;12.00;;;;;26.50;49.21;99000.69;6217743;28;98478;-68
2023/06/11 09:17:55;;;;;;;;;10.00;9.00;;;;;26.54;48.24;99009.97;6194205;28;96652;-69
2023/06/11 09:21:00;;;;;;;;;11.00;10.40;;;;;26.50;47.51;98995.97;6211809;28;96915;-70
2023/06/11 09:24:07;;;;;;;;;11.60;10.60;;;;;26.36;48.21;98989.78;6212247;28;96280;-70
2023/06/11 09:27:15;;;;;;;;;9.00;9.00;;;;;26.04;48.45;98992.94;6230891;28;96355;-70
2023/06/11 09:30:20;;;;;;;;;10.40;9.80;;;;;26.09;50.56;98985.31;6234858;27;96307;-70
2023/06/11 09:33:24;;;;;;;;;8.80;8.40;;;;;26.32;50.40;98993.50;6233630;28;96582;-69
2023/06/11 09:36:27;;;;;;;;;11.00;10.00;;;;;26.10;48.11;98986.94;6234650;27;96443;-69
2023/06/11 09:39:31;;;;;;;;;10.40;10.00;;;;;26.11;49.44;98993.25;6233288;28;96520;-70
2023/06/11 09:42:37;;;;;;;;;10.00;9.00;;;;;26.06;48.84;98996.19;6234058;28;96449;-71
2023/06/11 09:45:40;;;;;;;;;10.00;10.00;;;;;25.96;49.52;98991.75;6234933;28;96639;-70
2023/06/11 09:48:44;;;;;;;;;10.00;9.80;;;;;26.16;50.54;98987.59;6236493;27;96981;-70
2023/06/11 09:51:48;;;;;;;;;13.00;12.00;;;;;26.26;50.19;98992.84;6235094;28;96807;-70
2023/06/11 09:54:52;;;;;;;;;10.60;10.60;;;;;26.29;50.89;98989.47;6236692;27;96330;-70
2023/06/11 09:57:57;;;;;;;;;12.40;11.40;;;;;26.22;50.04;98994.63;6240345;28;96078;-70
2023/06/11 10:01:01;;;;;;;;;11.60;11.00;;;;;26.19;50.27;99000.78;6222276;28;96638;-70
2023/06/11 10:04:09;;;;;;;;;11.00;11.00;;;;;26.69;49.39;99002.00;6240721;28;96499;-70
2023/06/11 10:07:14;;;;;;;;;10.00;9.40;;;;;27.17;47.68;99000.25;6239239;28;96562;-69
2023/06/11 10:10:22;;;;;;;;;10.00;10.00;;;;;26.79;48.38;99005.59;6215537;28;96663;-70
2023/06/11 10:13:31;;;;;;;;;10.40;10.40;;;;;27.10;47.40;99001.53;6214540;28;96398;-70
2023/06/11 10:16:35;;;;;;;;;8.00;8.00;;;;;27.03;45.25;99001.22;6224799;28;98439;-70
2023/06/11 10:19:40;;;;;;;;;9.00;8.40;;;;;27.06;43.71;99006.13;6238686;28;96558;-70
2023/06/11 10:22:43;;;;;;;;;7.60;7.00;;;;;27.24;43.24;98998.59;6222548;28;96835;-70
2023/06/11 10:25:53;;;;;;;;;8.40;7.40;;;;;27.25;43.25;98997.47;6239996;27;96866;-70
2023/06/11 10:28:58;;;;;;;;;9.00;8.00;;;;;27.51;41.99;99006.53;6239144;28;96720;-70
2023/06/11 10:32:01;;;;;;;;;8.25;8.00;;;;;27.91;43.29;98997.91;6239933;27;96375;-70
2023/06/11 10:35:07;;;;;;;;;8.25;8.25;;;;;28.03;41.32;99009.09;6221844;28;97029;-70
2023/06/11 10:38:16;;;;;;;;;10.00;9.00;;;;;27.71;41.35;99004.22;6239076;27;96655;-71
2023/06/11 10:41:29;;;;;;;;;10.00;9.00;;;;;28.09;41.09;98993.09;6240387;27;96204;-71
2023/06/11 10:44:41;;;;;;;;;9.60;8.60;;;;;28.48;39.30;98998.28;6221877;28;98326;-70
2023/06/11 10:47:46;;;;;;;;;9.20;9.00;;;;;28.60;39.37;99006.66;6240452;28;96475;-70
2023/06/11 10:51:00;;;;;;;;;10.75;9.50;;;;;28.35;39.24;99010.41;6238706;27;96651;-70
2023/06/11 10:54:03;;;;;;;;;9.00;8.00;;;;;28.22;39.61;99001.22;6222384;28;98461;-71
2023/06/11 10:57:07;;;;;;;;;10.40;9.00;;;;;28.20;40.46;99002.72;6239868;27;96882;-70
2023/06/11 11:00:13;;;;;;;;;7.00;7.00;;;;;28.05;40.38;98998.50;6238323;28;98518;-71
2023/06/11 11:03:21;;;;;;;;;9.00;8.00;;;;;27.97;39.33;99000.16;6237946;28;99708;-71
2023/06/11 11:06:26;;;;;;;;;8.00;7.00;;;;;28.28;39.70;99002.66;6238750;27;96462;-71
2023/06/11 11:09:30;;;;;;;;;8.25;7.25;;;;;28.65;39.30;98991.78;6238555;27;96245;-71
2023/06/11 11:12:42;;;;;;;;;9.00;9.00;;;;;28.62;39.18;98998.00;6221302;28;96666;-69
2023/06/11 11:15:47;;;;;;;;;7.00;7.00;;;;;28.35;37.82;98994.59;6224446;28;96371;-70
2023/06/11 11:18:51;;;;;;;;;10.00;9.00;;;;;28.22;38.17;98989.31;6239732;27;96791;-70
2023/06/11 11:21:55;;;;;;;;;8.00;8.00;;;;;28.39;37.50;98992.78;6239304;27;96616;-70
2023/06/11 11:25:01;;;;;;;;;9.00;9.00;;;;;28.09;36.51;98979.25;6239385;27;96296;-70
2023/06/11 11:28:05;;;;;;;;;9.00;9.00;;;;;28.30;38.00;98971.78;6239459;27;97678;-71
2023/06/11 11:31:12;;;;;;;;;9.40;9.00;;;;;28.53;37.56;98984.22;6236042;28;96609;-69
2023/06/11 11:34:18;;;;;;;;;8.00;7.80;;;;;28.55;34.85;98983.84;6235643;28;98503;-70
2023/06/11 11:37:21;;;;;;;;;9.00;8.00;;;;;28.68;35.52;98972.50;6237526;27;96442;-69
2023/06/11 11:40:25;;;;;;;;;10.00;10.00;;;;;29.05;35.45;98969.91;6219651;28;96678;-70
2023/06/11 11:43:37;;;;;;;;;9.60;9.60;;;;;29.15;34.75;98967.53;6237820;27;96282;-70
2023/06/11 11:46:42;;;;;;;;;10.00;9.00;;;;;29.03;34.29;98972.25;6213796;28;96238;-70
2023/06/11 11:49:53;;;;;;;;;8.20;7.20;;;;;29.18;34.46;98958.50;6236463;28;97900;-69
2023/06/11 11:53:03;;;;;;;;;8.20;7.00;;;;;29.28;35.33;98971.13;6239065;28;96757;-70
2023/06/11 11:56:07;;;;;;;;;9.00;8.80;;;;;28.84;34.43;98975.50;6238750;28;96925;-72
2023/06/11 11:59:17;;;;;;;;;8.75;8.50;;;;;28.72;33.61;98964.34;6237276;28;96298;-70
2023/06/11 12:02:28;;;;;;;;;9.00;8.60;;;;;29.03;34.59;98963.91;6220801;28;98668;-71
2023/06/11 12:05:31;;;;;;;;;9.40;7.60;;;;;29.45;34.44;98962.66;6237586;28;96227;-70
2023/06/11 12:08:36;;;;;;;;;7.50;7.50;;;;;29.29;32.73;98951.38;6237261;28;96335;-70
2023/06/11 12:11:40;;;;;;;;;7.40;7.40;;;;;28.85;33.37;98966.84;6238107;28;96314;-70
2023/06/11 12:15:02;;;;;;;;;7.80;7.00;;;;;29.08;34.21;98949.78;6220623;28;98332;-70
2023/06/11 12:18:07;;;;;;;;;7.60;7.60;;;;;29.20;33.08;98964.53;6219357;27;96750;-69
2023/06/11 12:21:10;;;;;;;;;8.00;8.00;;;;;28.81;34.00;98949.25;6238602;27;96265;-69
2023/06/11 12:24:15;;;;;;;;;12.00;11.00;;;;;28.63;35.02;98956.06;6238358;27;96312;-70
2023/06/11 12:27:18;;;;;;;;;10.00;9.00;;;;;28.42;33.89;98956.06;6219409;28;96643;-70
2023/06/11 12:30:22;;;;;;;;;8.00;8.00;;;;;28.70;35.12;98952.72;6236808;28;96897;-70
2023/06/11 12:33:26;;;;;;;;;9.00;9.00;;;;;28.77;34.08;98959.41;6237959;27;96337;-70
2023/06/11 12:36:30;;;;;;;;;9.25;8.75;;;;;29.07;35.26;98959.28;6220419;28;96637;-70
2023/06/11 12:39:33;;;;;;;;;9.75;9.00;;;;;29.37;34.73;98949.66;6237774;27;96446;-70
2023/06/11 12:42:37;;;;;;;;;8.40;8.00;;;;;29.73;33.93;98943.34;6237864;27;96923;-70
2023/06/11 12:45:40;;;;;;;;;6.00;5.00;;;;;29.66;32.88;98941.16;6219964;28;96668;-70
2023/06/11 12:48:45;;;;;;;;;9.00;9.00;;;;;29.69;32.04;98948.81;6236832;28;96735;-69
2023/06/11 12:51:48;;;;;;;;;8.50;8.50;;;;;29.69;32.24;98948.00;6237627;27;96236;-71
2023/06/11 12:54:51;;;;;;;;;8.00;7.60;;;;;29.47;31.97;98942.88;6237934;27;97007;-71
2023/06/11 12:57:55;;;;;;;;;9.00;9.00;;;;;29.48;33.13;98945.28;6236287;28;96392;-72
2023/06/11 13:00:58;;;;;;;;;7.75;7.00;;;;;29.38;32.04;98950.47;6219687;28;98416;-71
2023/06/11 13:04:03;;;;;;;;;9.00;8.00;;;;;28.98;32.00;98951.03;6236317;28;97249;-71
2023/06/11 13:07:06;;;;;;;;;9.60;8.00;;;;;28.96;33.20;98953.34;6237483;28;96536;-73
2023/06/11 13:10:10;;;;;;;;;7.00;7.00;;;;;29.07;33.57;98935.13;6235965;27;96673;-70
2023/06/11 13:13:15;;;;;;;;;7.00;6.00;;;;;29.14;33.70;98940.09;6237246;27;96464;-70
2023/06/11 13:16:19;;;;;;;;;7.00;7.00;;;;;28.88;32.67;98954.25;6234606;28;96630;-70
2023/06/11 13:19:24;;;;;;;;;7.00;6.80;;;;;28.82;32.14;98947.28;6236689;27;96461;-70
2023/06/11 13:22:27;;;;;;;;;7.67;7.67;;;;;29.17;32.54;98939.44;6236001;28;98405;-70
2023/06/11 13:25:30;;;;;;;;;8.00;7.00;;;;;29.43;31.93;98936.38;6237176;27;96211;-70
2023/06/11 13:28:33;;;;;;;;;7.00;7.00;;;;;29.29;31.47;98929.16;6236115;27;96416;-70
2023/06/11 13:31:38;;;;;;;;;9.60;8.60;;;;;29.60;31.92;98933.41;6236568;28;98667;-70
2023/06/11 13:34:43;;;;;;;;;9.00;8.25;;;;;29.90;32.38;98931.25;6239319;27;96565;-70
2023/06/11 13:37:47;;;;;;;;;6.20;6.20;;;;;30.17;31.89;98932.47;6239514;27;96737;-70
2023/06/11 13:40:52;;;;;;;;;7.00;7.00;;;;;30.38;30.79;98933.97;6239648;27;96990;-70
2023/06/11 13:43:55;;;;;;;;;5.60;5.60;;;;;30.38;29.68;98933.97;6239544;27;96533;-70
2023/06/11 13:47:00;;;;;;;;;8.40;7.40;;;;;30.57;30.45;98935.31;6223296;28;98472;-71
2023/06/11 13:50:06;;;;;;;;;7.00;7.00;;;;;30.45;29.95;98931.38;6223566;28;96713;-70
2023/06/11 13:53:09;;;;;;;;;7.00;7.00;;;;;30.67;29.74;98927.28;6239716;28;97781;-70
2023/06/11 13:56:13;;;;;;;;;7.40;7.40;;;;;30.73;29.96;98925.06;6239880;28;97326;-69
2023/06/11 13:59:17;;;;;;;;;7.00;6.00;;;;;30.79;30.31;98921.66;6222838;28;98159;-69
2023/06/11 14:02:21;;;;;;;;;6.33;5.00;;;;;30.83;29.69;98932.91;6239350;28;98426;-71
2023/06/11 14:05:27;;;;;;;;;6.00;6.00;;;;;30.56;29.41;98926.16;6222837;28;96686;-71
2023/06/11 14:08:30;;;;;;;;;7.40;6.00;;;;;30.50;29.70;98917.25;6241232;28;96592;-70
2023/06/11 14:11:34;;;;;;;;;7.00;6.60;;;;;30.64;29.20;98911.31;6240548;27;96482;-71
2023/06/11 14:14:37;;;;;;;;;6.00;6.00;;;;;29.99;29.07;98909.69;6239656;28;96811;-70
2023/06/11 14:17:42;;;;;;;;;7.00;6.00;;;;;29.84;28.31;98904.81;6239080;28;98882;-70
2023/06/11 14:20:47;;;;;;;;;7.40;6.40;;;;;29.39;29.09;98921.56;6240496;27;97450;-70
2023/06/11 14:23:51;;;;;;;;;6.00;6.00;;;;;29.12;28.95;98923.00;6240384;27;96338;-70
2023/06/11 14:26:55;;;;;;;;;7.00;6.20;;;;;29.03;29.35;98922.28;6240100;27;96841;-70